createdAt,value
2023-02-27T00:00:16.595Z,2.60
2023-02-27T00:02:37.591Z,2.47
2023-02-27T00:04:58.877Z,2.30
2023-02-27T00:07:20.162Z,2.70
2023-02-27T00:09:42.029Z,2.47
2023-02-27T00:12:05.017Z,2.70
2023-02-27T00:14:26.075Z,2.80
2023-02-27T00:16:47.308Z,2.30
2023-02-27T00:19:08.462Z,2.80
2023-02-27T00:21:29.814Z,2.57
2023-02-27T00:23:52.038Z,2.40
2023-02-27T00:26:13.155Z,2.40
2023-02-27T00:28:35.869Z,2.33
2023-02-27T00:30:57.497Z,2.40
2023-02-27T00:33:18.742Z,2.50
2023-02-27T00:35:40.022Z,2.40
2023-02-27T00:38:01.388Z,2.43
2023-02-27T00:40:25.279Z,2.50
2023-02-27T00:42:48.589Z,2.43
2023-02-27T00:45:11.388Z,2.73
2023-02-27T00:47:32.465Z,2.50
2023-02-27T00:49:53.684Z,2.40
2023-02-27T00:52:14.897Z,2.50
2023-02-27T00:54:36.233Z,2.83
2023-02-27T00:56:57.399Z,2.53
2023-02-27T00:59:18.671Z,2.40
2023-02-27T01:01:41.276Z,2.67
2023-02-27T01:04:02.553Z,2.40
2023-02-27T01:06:24.021Z,2.47
2023-02-27T01:08:45.452Z,2.53
2023-02-27T01:11:06.969Z,2.63
2023-02-27T01:13:27.995Z,2.50
2023-02-27T01:15:49.399Z,2.57
2023-02-27T01:18:12.108Z,2.30
2023-02-27T01:20:33.518Z,3.00
2023-02-27T01:22:55.105Z,2.53
2023-02-27T01:25:16.335Z,2.60
2023-02-27T01:27:37.550Z,2.47
2023-02-27T01:29:58.752Z,2.80
2023-02-27T01:32:20.016Z,2.60
2023-02-27T01:34:42.602Z,2.63
2023-02-27T01:37:03.852Z,2.90
2023-02-27T01:39:26.219Z,2.90
2023-02-27T01:41:47.587Z,2.77
2023-02-27T01:44:09.774Z,2.63
2023-02-27T01:46:31.128Z,2.80
2023-02-27T01:48:55.638Z,2.87
2023-02-27T01:51:20.542Z,2.70
2023-02-27T01:53:42.139Z,2.90
2023-02-27T01:56:07.027Z,2.90
2023-02-27T01:58:28.339Z,3.00
2023-02-27T02:00:49.673Z,2.77
2023-02-27T02:03:16.287Z,2.93
2023-02-27T02:05:37.551Z,2.80
2023-02-27T02:08:00.488Z,3.03
2023-02-27T02:10:22.681Z,2.80
2023-02-27T02:12:44.707Z,3.20
2023-02-27T02:15:06.584Z,3.33
2023-02-27T02:17:31.621Z,3.07
2023-02-27T02:20:09.159Z,3.13
2023-02-27T02:22:49.201Z,3.30
2023-02-27T02:25:30.957Z,3.23
2023-02-27T02:27:57.727Z,3.40
2023-02-27T02:30:43.148Z,3.40
2023-02-27T02:33:28.403Z,3.60
2023-02-27T02:36:10.349Z,3.37
2023-02-27T02:38:40.735Z,3.40
2023-02-27T02:41:03.585Z,3.50
2023-02-27T02:43:27.451Z,3.40
2023-02-27T02:45:50.699Z,3.47
2023-02-27T02:48:14.350Z,3.40
2023-02-27T02:50:37.296Z,3.60
2023-02-27T02:53:02.683Z,3.53
2023-02-27T02:55:28.100Z,3.33
2023-02-27T02:57:53.058Z,3.80
2023-02-27T03:00:16.970Z,3.83
2023-02-27T03:02:40.252Z,3.43
2023-02-27T03:05:03.796Z,3.50
2023-02-27T03:07:26.299Z,3.57
2023-02-27T03:09:49.281Z,3.50
2023-02-27T03:12:13.182Z,3.90
2023-02-27T03:14:36.979Z,3.40
2023-02-27T03:16:59.897Z,3.70
2023-02-27T03:19:23.239Z,3.50
2023-02-27T03:21:47.155Z,3.50
2023-02-27T03:24:10.282Z,3.60
2023-02-27T03:26:34.292Z,3.43
2023-02-27T03:28:57.963Z,3.80
2023-02-27T03:31:23.612Z,3.97
2023-02-27T03:33:48.463Z,4.20
2023-02-27T03:36:13.098Z,4.07
2023-02-27T03:38:37.229Z,4.00
2023-02-27T03:41:03.178Z,3.93
2023-02-27T03:43:28.595Z,3.60
2023-02-27T03:45:55.290Z,4.20
2023-02-27T03:48:16.194Z,3.40
2023-02-27T03:50:38.038Z,3.70
2023-02-27T03:52:58.993Z,3.47
2023-02-27T03:55:21.533Z,3.50
2023-02-27T03:57:43.525Z,4.47
2023-02-27T04:00:06.011Z,3.83
2023-02-27T04:02:28.417Z,3.90
2023-02-27T04:04:49.470Z,4.07
2023-02-27T04:07:24.503Z,3.87
2023-02-27T04:09:57.873Z,4.00
2023-02-27T04:12:25.162Z,4.07
2023-02-27T04:14:52.419Z,4.33
2023-02-27T04:17:18.807Z,3.90
2023-02-27T04:19:47.231Z,3.83
2023-02-27T04:22:15.415Z,3.93
2023-02-27T04:24:38.965Z,4.20
2023-02-27T04:27:02.489Z,4.57
2023-02-27T04:29:25.697Z,4.07
2023-02-27T04:31:49.275Z,4.23
2023-02-27T04:34:15.749Z,4.00
2023-02-27T04:36:40.625Z,4.10
2023-02-27T04:39:05.572Z,4.17
2023-02-27T04:41:29.410Z,4.10
2023-02-27T04:43:51.620Z,4.13
2023-02-27T04:46:15.712Z,4.10
2023-02-27T04:48:39.431Z,4.20
2023-02-27T04:51:02.332Z,4.20
2023-02-27T04:53:26.293Z,4.57
2023-02-27T04:55:48.724Z,4.07
2023-02-27T04:58:11.371Z,4.60
2023-02-27T05:00:33.921Z,4.20
2023-02-27T05:02:57.918Z,4.23
2023-02-27T05:05:22.354Z,3.97
2023-02-27T05:07:45.545Z,4.00
2023-02-27T05:10:09.244Z,4.03
2023-02-27T05:12:33.317Z,4.47
2023-02-27T05:14:57.325Z,3.97
2023-02-27T05:17:20.634Z,4.23
2023-02-27T05:19:42.787Z,4.53
2023-02-27T05:22:08.968Z,4.70
2023-02-27T05:24:34.006Z,4.03
2023-02-27T05:27:13.755Z,4.67
2023-02-27T05:29:37.786Z,4.30
2023-02-27T05:32:04.812Z,4.40
2023-02-27T05:34:28.172Z,4.40
2023-02-27T05:36:53.835Z,4.20
2023-02-27T05:39:16.609Z,4.53
2023-02-27T05:41:40.048Z,4.50
2023-02-27T05:44:05.353Z,4.60
2023-02-27T05:46:28.666Z,4.30
2023-02-27T05:48:51.398Z,4.47
2023-02-27T05:51:14.413Z,4.40
2023-02-27T05:53:39.334Z,4.60
2023-02-27T05:56:02.427Z,4.10
2023-02-27T05:58:26.096Z,4.20
2023-02-27T06:00:50.522Z,4.50
2023-02-27T06:03:11.779Z,4.57
2023-02-27T06:05:33.019Z,4.77
2023-02-27T06:07:54.305Z,9.10
2023-02-27T06:10:16.064Z,9.30
2023-02-27T06:12:37.549Z,6.73
2023-02-27T06:14:58.876Z,7.20
2023-02-27T06:17:21.665Z,6.73
2023-02-27T06:19:43.026Z,6.10
2023-02-27T06:22:04.258Z,5.10
2023-02-27T06:24:26.763Z,4.80
2023-02-27T06:26:48.242Z,4.87
2023-02-27T06:29:09.480Z,5.30
2023-02-27T06:31:31.385Z,4.90
2023-02-27T06:33:55.730Z,6.30
2023-02-27T06:36:16.687Z,5.60
2023-02-27T06:38:37.928Z,4.90
2023-02-27T06:40:59.526Z,5.47
2023-02-27T06:43:22.772Z,4.90
2023-02-27T06:45:44.190Z,4.67
2023-02-27T06:48:05.757Z,4.93
2023-02-27T06:50:28.433Z,5.03
2023-02-27T06:52:49.556Z,5.23
2023-02-27T06:55:11.852Z,5.10
2023-02-27T06:57:33.040Z,5.33
2023-02-27T06:59:54.205Z,4.93
2023-02-27T07:02:16.406Z,5.37
2023-02-27T07:04:37.674Z,5.03
2023-02-27T07:07:34.673Z,4.87
2023-02-27T07:09:41.573Z,4.93
2023-02-27T07:12:02.967Z,5.33
2023-02-27T07:14:25.712Z,4.87
2023-02-27T07:16:50.872Z,5.33
2023-02-27T07:19:12.141Z,4.33
2023-02-27T07:21:33.688Z,4.80
2023-02-27T07:23:56.292Z,4.90
2023-02-27T07:26:18.669Z,4.50
2023-02-27T07:28:39.966Z,4.53
2023-02-27T07:31:01.514Z,4.70
2023-02-27T07:33:23.744Z,4.53
2023-02-27T07:35:46.348Z,4.87
2023-02-27T07:38:07.398Z,4.73
2023-02-27T07:40:30.009Z,4.70
2023-02-27T07:42:53.057Z,4.80
2023-02-27T07:45:14.091Z,5.00
2023-02-27T07:47:35.401Z,4.60
2023-02-27T07:49:56.647Z,4.50
2023-02-27T07:52:17.774Z,4.10
2023-02-27T07:54:38.979Z,4.50
2023-02-27T07:57:01.608Z,4.40
2023-02-27T07:59:22.575Z,4.20
2023-02-27T08:01:43.923Z,4.10
2023-02-27T08:04:05.444Z,4.30
2023-02-27T08:06:26.907Z,4.37
2023-02-27T08:08:48.436Z,4.67
2023-02-27T08:11:09.993Z,4.13
2023-02-27T08:13:58.934Z,4.27
2023-02-27T08:16:13.341Z,4.30
2023-02-27T08:18:35.098Z,4.20
2023-02-27T08:20:56.550Z,4.00
2023-02-27T08:23:17.434Z,3.97
2023-02-27T08:25:38.731Z,4.30
2023-02-27T08:28:00.043Z,4.27
2023-02-27T08:30:22.684Z,4.20
2023-02-27T08:32:44.884Z,4.20
2023-02-27T08:35:06.684Z,4.10
2023-02-27T08:37:27.892Z,3.97
2023-02-27T08:39:49.301Z,4.33
2023-02-27T08:42:10.444Z,4.40
2023-02-27T08:44:31.616Z,3.97
2023-02-27T08:46:54.253Z,3.83
2023-02-27T08:49:15.456Z,4.10
2023-02-27T08:51:36.625Z,3.23
2023-02-27T08:53:58.980Z,3.80
2023-02-27T08:56:20.540Z,4.27
2023-02-27T08:58:41.944Z,3.87
2023-02-27T09:01:03.136Z,3.90
2023-02-27T09:03:28.618Z,3.80
2023-02-27T09:05:50.430Z,4.10
2023-02-27T09:08:11.735Z,4.20
2023-02-27T09:10:33.123Z,3.90
2023-02-27T09:12:54.192Z,3.63
2023-02-27T09:15:15.452Z,4.00
2023-02-27T09:17:37.043Z,3.60
2023-02-27T09:19:59.561Z,3.30
2023-02-27T09:22:20.854Z,3.80
2023-02-27T09:24:42.133Z,3.93
2023-02-27T09:27:03.339Z,3.10
2023-02-27T09:29:25.688Z,3.63
2023-02-27T09:31:47.092Z,3.80
2023-02-27T09:34:08.173Z,3.80
2023-02-27T09:36:30.713Z,3.50
2023-02-27T09:38:52.211Z,3.37
2023-02-27T09:41:41.286Z,3.00
2023-02-27T09:44:02.712Z,3.37
2023-02-27T09:46:25.525Z,3.10
2023-02-27T09:48:48.821Z,3.47
2023-02-27T09:51:10.036Z,3.00
2023-02-27T09:53:35.630Z,3.13
2023-02-27T09:55:58.365Z,3.20
2023-02-27T09:58:27.123Z,3.00
2023-02-27T10:00:49.728Z,2.77
2023-02-27T10:03:17.068Z,2.70
2023-02-27T10:05:44.752Z,3.17
2023-02-27T10:08:09.214Z,2.63
2023-02-27T10:10:34.046Z,3.10
2023-02-27T10:13:00.634Z,2.60
2023-02-27T10:15:24.999Z,2.80
2023-02-27T10:17:48.418Z,3.17
2023-02-27T10:20:11.366Z,3.00
2023-02-27T10:22:34.426Z,2.80
2023-02-27T10:24:58.792Z,3.60
2023-02-27T10:27:22.379Z,3.30
2023-02-27T10:29:43.765Z,3.10
2023-02-27T10:32:07.008Z,2.97
2023-02-27T10:34:30.094Z,3.43
2023-02-27T10:36:52.391Z,3.40
2023-02-27T10:39:15.553Z,3.37
2023-02-27T10:41:37.226Z,3.30
2023-02-27T10:44:01.129Z,3.30
2023-02-27T10:46:26.085Z,3.47
2023-02-27T10:48:47.692Z,3.23
2023-02-27T10:51:22.860Z,2.97
2023-02-27T10:53:43.876Z,3.27
2023-02-27T10:56:06.210Z,3.30
2023-02-27T10:58:28.838Z,3.33
2023-02-27T11:00:55.535Z,3.00
2023-02-27T11:03:19.622Z,3.30
2023-02-27T11:05:40.840Z,3.37
2023-02-27T11:08:12.686Z,2.97
2023-02-27T11:10:33.710Z,2.97
2023-02-27T11:12:59.383Z,3.20
2023-02-27T11:15:25.558Z,2.83
2023-02-27T11:17:48.633Z,3.00
2023-02-27T11:20:30.579Z,2.80
2023-02-27T11:23:02.872Z,2.90
2023-02-27T11:25:25.710Z,3.07
2023-02-27T11:27:47.702Z,2.80
2023-02-27T11:30:22.471Z,2.67
2023-02-27T11:32:44.849Z,2.90
2023-02-27T11:35:19.456Z,3.10
2023-02-27T11:37:41.846Z,2.90
2023-02-27T11:40:06.936Z,3.30
2023-02-27T11:42:31.658Z,2.73
2023-02-27T11:44:57.704Z,3.23
2023-02-27T11:47:22.399Z,2.57
2023-02-27T11:49:57.023Z,3.00
2023-02-27T11:52:23.940Z,3.40
2023-02-27T11:54:46.789Z,2.97
2023-02-27T11:57:12.956Z,3.50
2023-02-27T11:59:40.393Z,3.13
2023-02-27T12:02:04.560Z,3.10
2023-02-27T12:04:27.694Z,3.47
2023-02-27T12:06:51.970Z,3.20
2023-02-27T12:09:22.908Z,2.87
2023-02-27T12:11:45.204Z,3.20
2023-02-27T12:14:16.714Z,2.97
2023-02-27T12:16:40.052Z,3.20
2023-02-27T12:19:05.832Z,2.80
2023-02-27T12:21:28.424Z,2.73
2023-02-27T12:23:52.639Z,2.70
2023-02-27T12:26:17.670Z,3.20
2023-02-27T12:28:44.188Z,2.80
2023-02-27T12:31:23.937Z,3.20
2023-02-27T12:33:47.555Z,2.70
2023-02-27T12:36:11.015Z,3.33
2023-02-27T12:38:32.725Z,3.03
2023-02-27T12:40:59.156Z,3.10
2023-02-27T12:43:26.268Z,2.90
2023-02-27T12:46:01.566Z,2.90
2023-02-27T12:48:29.761Z,2.80
2023-02-27T12:50:54.330Z,3.13
2023-02-27T12:53:23.873Z,2.83
2023-02-27T12:55:47.456Z,2.97
2023-02-27T12:58:17.967Z,3.10
2023-02-27T13:00:44.447Z,3.00
2023-02-27T13:03:10.943Z,2.80
2023-02-27T13:05:37.798Z,2.83
2023-02-27T13:08:04.320Z,2.50
2023-02-27T13:10:29.821Z,2.63
2023-02-27T13:12:52.455Z,2.50
2023-02-27T13:15:16.965Z,2.70
2023-02-27T13:17:40.635Z,2.60
2023-02-27T13:20:05.182Z,2.50
2023-02-27T13:22:33.703Z,3.17
2023-02-27T13:24:56.650Z,2.93
2023-02-27T13:27:22.439Z,2.60
2023-02-27T13:29:47.535Z,2.63
2023-02-27T13:32:17.284Z,2.93
2023-02-27T13:34:41.633Z,3.10
2023-02-27T13:37:03.738Z,3.30
2023-02-27T13:39:38.562Z,2.90
2023-02-27T13:41:59.564Z,2.70
2023-02-27T13:44:48.446Z,2.70
2023-02-27T13:47:28.174Z,2.97
2023-02-27T13:49:50.490Z,2.80
2023-02-27T13:52:11.804Z,2.80
2023-02-27T13:54:34.353Z,2.73
2023-02-27T13:57:22.612Z,2.90
2023-02-27T13:59:44.432Z,2.67
2023-02-27T14:02:26.122Z,2.60
2023-02-27T14:04:49.281Z,2.90
2023-02-27T14:07:13.048Z,2.50
2023-02-27T14:09:35.856Z,2.80
2023-02-27T14:11:58.986Z,2.83
2023-02-27T14:14:36.471Z,2.97
2023-02-27T14:16:58.910Z,2.77
2023-02-27T14:19:50.556Z,2.77
2023-02-27T14:22:30.682Z,2.73
2023-02-27T14:25:03.009Z,2.47
2023-02-27T14:27:25.845Z,2.63
2023-02-27T14:29:48.064Z,2.50
2023-02-27T14:32:09.367Z,2.87
2023-02-27T14:34:30.865Z,2.43
2023-02-27T14:36:52.970Z,2.60
2023-02-27T14:39:20.488Z,2.50
2023-02-27T14:41:48.198Z,2.50
2023-02-27T14:44:18.798Z,2.37
2023-02-27T14:46:40.487Z,2.40
2023-02-27T14:49:02.812Z,2.30
2023-02-27T14:51:25.133Z,2.13
2023-02-27T14:53:46.683Z,2.30
2023-02-27T14:56:18.810Z,2.33
2023-02-27T14:58:55.704Z,2.27
2023-02-27T15:01:23.603Z,2.80
2023-02-27T15:03:47.155Z,2.80
2023-02-27T15:06:14.401Z,2.77
2023-02-27T15:08:39.306Z,2.60
2023-02-27T15:11:02.544Z,2.57
2023-02-27T15:13:25.990Z,2.50
2023-02-27T15:15:49.303Z,2.60
2023-02-27T15:18:13.725Z,3.00
2023-02-27T15:20:35.785Z,2.77
2023-02-27T15:22:57.740Z,2.70
2023-02-27T15:25:29.229Z,2.73
2023-02-27T15:27:51.336Z,2.50
2023-02-27T15:30:20.739Z,4.03
2023-02-27T15:32:44.407Z,3.13
2023-02-27T15:35:07.323Z,2.80
2023-02-27T15:37:29.995Z,2.60
2023-02-27T15:39:51.581Z,2.90
2023-02-27T15:42:13.911Z,2.50
2023-02-27T15:44:38.404Z,2.70
2023-02-27T15:46:59.435Z,2.60
2023-02-27T15:49:22.819Z,2.93
2023-02-27T15:51:43.724Z,2.80
2023-02-27T15:54:05.246Z,2.73
2023-02-27T15:56:29.066Z,2.90
2023-02-27T15:58:53.875Z,2.63
2023-02-27T16:01:18.584Z,2.70
2023-02-27T16:03:41.429Z,2.57
2023-02-27T16:06:05.027Z,2.50
2023-02-27T16:08:27.348Z,2.90
2023-02-27T16:10:48.963Z,3.27
2023-02-27T16:13:23.780Z,2.67
2023-02-27T16:15:44.950Z,2.70
2023-02-27T16:18:24.758Z,2.80
2023-02-27T16:20:47.752Z,2.33
2023-02-27T16:23:17.045Z,2.43
2023-02-27T16:25:38.371Z,2.60
2023-02-27T16:27:59.767Z,2.13
2023-02-27T16:30:20.849Z,2.80
2023-02-27T16:32:43.951Z,2.67
2023-02-27T16:35:06.145Z,2.57
2023-02-27T16:37:29.451Z,2.37
2023-02-27T16:39:54.329Z,2.50
2023-02-27T16:42:15.676Z,2.20
2023-02-27T16:44:37.509Z,2.50
2023-02-27T16:46:59.620Z,2.43
2023-02-27T16:49:22.427Z,2.37
2023-02-27T16:51:43.684Z,2.60
2023-02-27T16:54:06.653Z,2.33
2023-02-27T16:56:37.817Z,2.20
2023-02-27T16:58:59.936Z,3.07
2023-02-27T17:01:21.411Z,2.60
2023-02-27T17:03:42.712Z,2.60
2023-02-27T17:06:04.941Z,2.60
2023-02-27T17:08:26.137Z,2.17
2023-02-27T17:10:47.514Z,2.50
2023-02-27T17:13:10.156Z,2.57
2023-02-27T17:15:31.458Z,2.70
2023-02-27T17:17:52.449Z,2.67
2023-02-27T17:20:14.544Z,3.00
2023-02-27T17:22:36.090Z,4.03
2023-02-27T17:24:57.312Z,2.80
2023-02-27T17:27:18.459Z,2.70
2023-02-27T17:29:41.125Z,2.70
2023-02-27T17:32:02.485Z,3.10
2023-02-27T17:34:23.716Z,2.50
2023-02-27T17:36:44.977Z,2.70
2023-02-27T17:39:06.501Z,2.50
2023-02-27T17:41:27.738Z,2.80
2023-02-27T17:43:50.730Z,2.77
2023-02-27T17:46:14.736Z,3.00
2023-02-27T17:48:37.262Z,2.90
2023-02-27T17:51:04.143Z,2.70
2023-02-27T17:53:25.133Z,2.97
2023-02-27T17:55:46.650Z,2.63
2023-02-27T17:58:07.945Z,2.73
2023-02-27T18:00:30.118Z,2.70
2023-02-27T18:02:52.524Z,2.60
2023-02-27T18:05:13.984Z,3.00
2023-02-27T18:07:35.804Z,3.00
2023-02-27T18:09:57.023Z,3.03
2023-02-27T18:12:18.334Z,3.17
2023-02-27T18:14:39.490Z,3.10
2023-02-27T18:17:00.744Z,2.73
2023-02-27T18:19:25.036Z,2.97
2023-02-27T18:21:47.242Z,2.70
2023-02-27T18:24:08.870Z,2.90
2023-02-27T18:26:31.305Z,2.90
2023-02-27T18:28:54.062Z,2.70
2023-02-27T18:31:18.931Z,2.83
2023-02-27T18:33:39.810Z,3.07
2023-02-27T18:36:02.354Z,2.90
2023-02-27T18:38:23.394Z,2.80
2023-02-27T18:40:44.803Z,3.00
2023-02-27T18:43:06.409Z,2.90
2023-02-27T18:45:29.533Z,3.17
2023-02-27T18:47:51.012Z,3.50
2023-02-27T18:50:12.162Z,3.33
2023-02-27T18:52:37.190Z,3.00
2023-02-27T18:54:58.594Z,3.27
2023-02-27T18:57:19.835Z,3.20
2023-02-27T18:59:41.758Z,3.47
2023-02-27T19:02:02.929Z,3.03
2023-02-27T19:04:25.401Z,3.20
2023-02-27T19:06:46.641Z,3.33
2023-02-27T19:09:10.289Z,3.10
2023-02-27T19:11:33.204Z,3.33
2023-02-27T19:13:54.978Z,3.23
2023-02-27T19:16:16.709Z,3.03
2023-02-27T19:18:37.969Z,3.47
2023-02-27T19:21:03.392Z,3.20
2023-02-27T19:23:24.707Z,3.20
2023-02-27T19:25:48.922Z,3.40
2023-02-27T19:28:12.176Z,3.10
2023-02-27T19:30:33.317Z,3.43
2023-02-27T19:32:55.266Z,3.30
2023-02-27T19:35:16.859Z,3.17
2023-02-27T19:37:37.895Z,3.47
2023-02-27T19:39:59.421Z,3.30
2023-02-27T19:42:22.064Z,3.50
2023-02-27T19:44:43.823Z,3.67
2023-02-27T19:47:05.102Z,3.40
2023-02-27T19:49:26.153Z,3.20
2023-02-27T19:51:47.399Z,3.43
2023-02-27T19:54:08.648Z,3.63
2023-02-27T19:56:30.567Z,3.27
2023-02-27T19:58:54.155Z,3.27
2023-02-27T20:01:21.399Z,3.93
2023-02-27T20:03:43.821Z,3.63
2023-02-27T20:06:06.404Z,3.40
2023-02-27T20:08:27.572Z,3.50
2023-02-27T20:10:54.297Z,3.73
2023-02-27T20:13:15.837Z,3.87
2023-02-27T20:15:38.459Z,3.63
2023-02-27T20:17:59.783Z,3.37
2023-02-27T20:20:21.118Z,3.67
2023-02-27T20:22:43.510Z,3.60
2023-02-27T20:25:04.891Z,3.57
2023-02-27T20:27:26.130Z,3.77
2023-02-27T20:29:48.243Z,3.60
2023-02-27T20:32:10.555Z,3.80
2023-02-27T20:34:31.834Z,3.60
2023-02-27T20:36:53.767Z,3.70
2023-02-27T20:39:15.415Z,4.40
2023-02-27T20:41:37.058Z,4.57
2023-02-27T20:43:58.570Z,4.30
2023-02-27T20:46:20.456Z,4.00
2023-02-27T20:48:43.430Z,3.70
2023-02-27T20:51:09.283Z,4.00
2023-02-27T20:53:30.235Z,4.03
2023-02-27T20:55:51.385Z,3.93
2023-02-27T20:58:12.599Z,3.90
2023-02-27T21:00:33.950Z,3.43
2023-02-27T21:02:55.417Z,3.60
2023-02-27T21:05:18.027Z,3.63
2023-02-27T21:07:39.409Z,4.03
2023-02-27T21:10:00.762Z,3.40
2023-02-27T21:12:22.193Z,3.97
2023-02-27T21:14:44.507Z,3.83
2023-02-27T21:17:06.113Z,3.83
2023-02-27T21:19:27.533Z,3.80
2023-02-27T21:21:50.005Z,3.47
2023-02-27T21:24:11.437Z,3.97
2023-02-27T21:26:35.192Z,3.90
2023-02-27T21:28:57.924Z,3.60
2023-02-27T21:31:20.303Z,3.53
2023-02-27T21:33:41.523Z,3.83
2023-02-27T21:36:02.854Z,3.80
2023-02-27T21:38:25.671Z,3.90
2023-02-27T21:40:47.004Z,3.70
2023-02-27T21:43:09.071Z,3.40
2023-02-27T21:45:30.064Z,3.83
2023-02-27T21:47:51.638Z,3.53
2023-02-27T21:50:14.770Z,3.63
2023-02-27T21:52:35.806Z,3.90
2023-02-27T21:54:58.365Z,4.00
2023-02-27T21:57:21.572Z,3.90
2023-02-27T21:59:43.377Z,3.60
2023-02-27T22:02:05.665Z,3.57
2023-02-27T22:04:26.921Z,3.77
2023-02-27T22:06:49.075Z,3.33
2023-02-27T22:09:10.094Z,3.47
2023-02-27T22:11:33.171Z,3.73
2023-02-27T22:13:54.669Z,3.60
2023-02-27T22:16:15.724Z,3.70
2023-02-27T22:18:36.799Z,3.60
2023-02-27T22:20:58.096Z,3.80
2023-02-27T22:23:19.191Z,3.63
2023-02-27T22:25:41.097Z,3.90
2023-02-27T22:28:03.363Z,4.00
2023-02-27T22:30:24.401Z,3.87
2023-02-27T22:32:45.763Z,3.63
2023-02-27T22:35:07.424Z,3.73
2023-02-27T22:37:28.882Z,3.67
2023-02-27T22:39:50.135Z,3.83
2023-02-27T22:42:11.618Z,3.60
2023-02-27T22:44:34.286Z,3.90
2023-02-27T22:46:56.729Z,3.67
2023-02-27T22:49:18.826Z,3.63
2023-02-27T22:51:40.179Z,3.67
2023-02-27T22:54:03.060Z,4.33
2023-02-27T22:56:24.648Z,3.90
2023-02-27T22:58:47.806Z,3.67
2023-02-27T23:01:11.175Z,3.67
2023-02-27T23:03:32.334Z,3.93
2023-02-27T23:05:53.389Z,3.77
2023-02-27T23:08:14.793Z,4.17
2023-02-27T23:10:36.402Z,3.90
2023-02-27T23:12:57.786Z,3.70
2023-02-27T23:15:19.157Z,4.07
2023-02-27T23:17:52.914Z,3.80
2023-02-27T23:20:19.260Z,3.90
2023-02-27T23:22:40.504Z,3.83
2023-02-27T23:25:07.160Z,4.13
2023-02-27T23:27:28.149Z,3.97
2023-02-27T23:29:49.673Z,4.27
2023-02-27T23:32:11.039Z,3.63
2023-02-27T23:34:48.775Z,3.80
2023-02-27T23:37:10.461Z,3.73
2023-02-27T23:39:31.930Z,3.60
2023-02-27T23:41:53.159Z,3.70
2023-02-27T23:44:32.223Z,4.10
2023-02-27T23:46:53.486Z,3.93
2023-02-27T23:49:14.663Z,4.40
2023-02-27T23:51:37.538Z,3.50
2023-02-27T23:53:58.556Z,3.70
2023-02-27T23:56:21.465Z,3.90
2023-02-27T23:58:42.680Z,4.00
